sensor_id;sensor_type;location;lat;lon;timestamp;temperature;humidity
23471;DHT22;11908;50.806;4.424;2022-07-29T00:02:08;19.80;99.90
23471;DHT22;11908;50.806;4.424;2022-07-29T00:04:37;19.80;99.90
23471;DHT22;11908;50.806;4.424;2022-07-29T00:07:03;19.80;99.90
23471;DHT22;11908;50.806;4.424;2022-07-29T00:09:30;19.60;99.90
23471;DHT22;11908;50.806;4.424;2022-07-29T00:11:59;19.60;99.90
23471;DHT22;11908;50.806;4.424;2022-07-29T00:14:24;19.50;99.90
23471;DHT22;11908;50.806;4.424;2022-07-29T00:16:50;19.60;99.90
23471;DHT22;11908;50.806;4.424;2022-07-29T00:19:16;19.60;99.90
23471;DHT22;11908;50.806;4.424;2022-07-29T00:21:42;19.50;99.90
23471;DHT22;11908;50.806;4.424;2022-07-29T00:24:07;19.50;99.90
23471;DHT22;11908;50.806;4.424;2022-07-29T00:26:33;19.50;99.90
23471;DHT22;11908;50.806;4.424;2022-07-29T00:29:00;19.50;99.90
23471;DHT22;11908;50.806;4.424;2022-07-29T00:31:26;19.50;99.90
23471;DHT22;11908;50.806;4.424;2022-07-29T00:33:52;19.50;99.90
23471;DHT22;11908;50.806;4.424;2022-07-29T00:36:18;19.40;99.90
23471;DHT22;11908;50.806;4.424;2022-07-29T00:38:43;19.30;99.90
23471;DHT22;11908;50.806;4.424;2022-07-29T00:41:12;19.10;99.90
23471;DHT22;11908;50.806;4.424;2022-07-29T00:43:38;19.10;99.90
23471;DHT22;11908;50.806;4.424;2022-07-29T00:46:03;19.10;99.90
23471;DHT22;11908;50.806;4.424;2022-07-29T00:48:29;19.10;99.90
23471;DHT22;11908;50.806;4.424;2022-07-29T00:50:57;19.20;99.90
23471;DHT22;11908;50.806;4.424;2022-07-29T00:53:24;19.20;99.90
23471;DHT22;11908;50.806;4.424;2022-07-29T00:55:50;19.20;99.90
23471;DHT22;11908;50.806;4.424;2022-07-29T00:58:16;19.10;99.90
23471;DHT22;11908;50.806;4.424;2022-07-29T01:00:42;19.10;99.90
23471;DHT22;11908;50.806;4.424;2022-07-29T01:03:08;19.00;99.90
23471;DHT22;11908;50.806;4.424;2022-07-29T01:05:35;18.90;99.90
23471;DHT22;11908;50.806;4.424;2022-07-29T01:08:01;18.90;99.90
23471;DHT22;11908;50.806;4.424;2022-07-29T01:10:28;18.90;99.90
23471;DHT22;11908;50.806;4.424;2022-07-29T01:12:57;18.80;99.90
23471;DHT22;11908;50.806;4.424;2022-07-29T01:15:23;18.80;99.90
23471;DHT22;11908;50.806;4.424;2022-07-29T01:20:54;18.60;99.90
23471;DHT22;11908;50.806;4.424;2022-07-29T01:29:18;18.50;99.90
23471;DHT22;11908;50.806;4.424;2022-07-29T01:32:02;18.40;99.90
23471;DHT22;11908;50.806;4.424;2022-07-29T01:34:53;18.40;99.90
23471;DHT22;11908;50.806;4.424;2022-07-29T01:37:27;18.30;99.90
23471;DHT22;11908;50.806;4.424;2022-07-29T01:39:56;18.30;99.90
23471;DHT22;11908;50.806;4.424;2022-07-29T01:42:38;18.40;99.90
23471;DHT22;11908;50.806;4.424;2022-07-29T01:48:00;18.30;99.90
23471;DHT22;11908;50.806;4.424;2022-07-29T01:50:30;18.30;99.90
23471;DHT22;11908;50.806;4.424;2022-07-29T01:53:00;18.40;99.90
23471;DHT22;11908;50.806;4.424;2022-07-29T01:55:29;18.30;99.90
23471;DHT22;11908;50.806;4.424;2022-07-29T01:57:56;18.30;99.90
23471;DHT22;11908;50.806;4.424;2022-07-29T02:00:23;18.20;99.90
23471;DHT22;11908;50.806;4.424;2022-07-29T02:02:49;18.20;99.90
23471;DHT22;11908;50.806;4.424;2022-07-29T02:05:18;18.20;99.90
23471;DHT22;11908;50.806;4.424;2022-07-29T02:07:47;18.20;99.90
23471;DHT22;11908;50.806;4.424;2022-07-29T02:10:14;18.20;99.90
23471;DHT22;11908;50.806;4.424;2022-07-29T02:12:42;18.20;99.90
23471;DHT22;11908;50.806;4.424;2022-07-29T02:15:09;18.20;99.90
23471;DHT22;11908;50.806;4.424;2022-07-29T02:17:43;18.20;99.90
23471;DHT22;11908;50.806;4.424;2022-07-29T02:20:11;18.20;99.90
23471;DHT22;11908;50.806;4.424;2022-07-29T02:22:39;18.10;99.90
23471;DHT22;11908;50.806;4.424;2022-07-29T02:25:06;18.10;99.90
23471;DHT22;11908;50.806;4.424;2022-07-29T02:27:33;18.00;99.90
23471;DHT22;11908;50.806;4.424;2022-07-29T02:30:02;18.00;99.90
23471;DHT22;11908;50.806;4.424;2022-07-29T02:32:28;18.10;99.90
23471;DHT22;11908;50.806;4.424;2022-07-29T02:34:56;18.00;99.90
23471;DHT22;11908;50.806;4.424;2022-07-29T02:37:22;18.00;99.90
23471;DHT22;11908;50.806;4.424;2022-07-29T02:39:49;18.00;99.90
23471;DHT22;11908;50.806;4.424;2022-07-29T02:42:17;18.00;99.90
23471;DHT22;11908;50.806;4.424;2022-07-29T02:44:44;18.00;99.90
23471;DHT22;11908;50.806;4.424;2022-07-29T02:52:45;18.00;99.90
23471;DHT22;11908;50.806;4.424;2022-07-29T02:58:27;17.80;99.90
23471;DHT22;11908;50.806;4.424;2022-07-29T03:00:57;17.90;99.90
23471;DHT22;11908;50.806;4.424;2022-07-29T03:03:25;17.80;99.90
23471;DHT22;11908;50.806;4.424;2022-07-29T03:05:56;17.70;99.90
23471;DHT22;11908;50.806;4.424;2022-07-29T03:08:23;17.60;99.90
23471;DHT22;11908;50.806;4.424;2022-07-29T03:10:50;17.60;99.90
23471;DHT22;11908;50.806;4.424;2022-07-29T03:13:17;17.60;99.90
23471;DHT22;11908;50.806;4.424;2022-07-29T03:15:44;17.60;99.90
23471;DHT22;11908;50.806;4.424;2022-07-29T03:18:10;17.60;99.90
23471;DHT22;11908;50.806;4.424;2022-07-29T03:20:37;17.60;99.90
23471;DHT22;11908;50.806;4.424;2022-07-29T03:23:03;17.60;99.90
23471;DHT22;11908;50.806;4.424;2022-07-29T03:25:29;17.50;99.90
23471;DHT22;11908;50.806;4.424;2022-07-29T03:27:55;17.40;99.90
23471;DHT22;11908;50.806;4.424;2022-07-29T03:30:22;17.30;99.90
23471;DHT22;11908;50.806;4.424;2022-07-29T03:32:49;17.30;99.90
23471;DHT22;11908;50.806;4.424;2022-07-29T03:35:15;17.20;99.90
23471;DHT22;11908;50.806;4.424;2022-07-29T03:37:45;17.20;99.90
23471;DHT22;11908;50.806;4.424;2022-07-29T03:40:16;17.20;99.90
23471;DHT22;11908;50.806;4.424;2022-07-29T03:42:44;17.30;99.90
23471;DHT22;11908;50.806;4.424;2022-07-29T03:45:17;17.20;99.90
23471;DHT22;11908;50.806;4.424;2022-07-29T03:47:50;17.30;99.90
23471;DHT22;11908;50.806;4.424;2022-07-29T03:50:17;17.30;99.90
23471;DHT22;11908;50.806;4.424;2022-07-29T03:52:45;17.20;99.90
23471;DHT22;11908;50.806;4.424;2022-07-29T03:55:11;17.20;99.90
23471;DHT22;11908;50.806;4.424;2022-07-29T03:57:37;17.10;99.90
23471;DHT22;11908;50.806;4.424;2022-07-29T04:00:05;17.00;99.90
23471;DHT22;11908;50.806;4.424;2022-07-29T04:02:32;17.00;99.90
23471;DHT22;11908;50.806;4.424;2022-07-29T04:04:58;17.10;99.90
23471;DHT22;11908;50.806;4.424;2022-07-29T04:07:24;17.00;99.90
23471;DHT22;11908;50.806;4.424;2022-07-29T04:09:50;17.00;99.90
23471;DHT22;11908;50.806;4.424;2022-07-29T04:12:15;16.90;99.90
23471;DHT22;11908;50.806;4.424;2022-07-29T04:14:41;17.00;99.90
23471;DHT22;11908;50.806;4.424;2022-07-29T04:17:06;17.00;99.90
23471;DHT22;11908;50.806;4.424;2022-07-29T04:19:33;17.00;99.90
23471;DHT22;11908;50.806;4.424;2022-07-29T04:21:59;17.00;99.90
23471;DHT22;11908;50.806;4.424;2022-07-29T04:24:26;16.90;99.90
23471;DHT22;11908;50.806;4.424;2022-07-29T04:26:52;16.80;99.90
23471;DHT22;11908;50.806;4.424;2022-07-29T04:29:18;16.70;99.90
23471;DHT22;11908;50.806;4.424;2022-07-29T04:31:43;16.70;99.90
23471;DHT22;11908;50.806;4.424;2022-07-29T04:34:10;16.70;99.90
23471;DHT22;11908;50.806;4.424;2022-07-29T04:36:36;16.80;99.90
23471;DHT22;11908;50.806;4.424;2022-07-29T04:39:01;16.80;99.90
23471;DHT22;11908;50.806;4.424;2022-07-29T04:41:28;17.00;99.90
23471;DHT22;11908;50.806;4.424;2022-07-29T04:43:54;17.10;99.90
23471;DHT22;11908;50.806;4.424;2022-07-29T04:46:19;17.30;99.90
23471;DHT22;11908;50.806;4.424;2022-07-29T04:48:46;17.50;99.90
23471;DHT22;11908;50.806;4.424;2022-07-29T04:51:12;17.90;99.90
23471;DHT22;11908;50.806;4.424;2022-07-29T04:53:38;18.40;99.90
23471;DHT22;11908;50.806;4.424;2022-07-29T04:56:04;18.90;99.90
23471;DHT22;11908;50.806;4.424;2022-07-29T04:58:29;19.20;99.90
23471;DHT22;11908;50.806;4.424;2022-07-29T05:00:55;19.40;99.90
23471;DHT22;11908;50.806;4.424;2022-07-29T05:03:21;19.70;99.90
23471;DHT22;11908;50.806;4.424;2022-07-29T05:05:46;20.30;99.90
23471;DHT22;11908;50.806;4.424;2022-07-29T05:08:12;20.90;99.90
23471;DHT22;11908;50.806;4.424;2022-07-29T05:10:38;21.50;99.90
23471;DHT22;11908;50.806;4.424;2022-07-29T05:13:07;22.20;99.90
23471;DHT22;11908;50.806;4.424;2022-07-29T05:15:36;23.00;99.90
23471;DHT22;11908;50.806;4.424;2022-07-29T05:18:02;23.80;99.90
23471;DHT22;11908;50.806;4.424;2022-07-29T05:20:29;24.60;99.90
23471;DHT22;11908;50.806;4.424;2022-07-29T05:22:58;25.20;99.90
23471;DHT22;11908;50.806;4.424;2022-07-29T05:25:25;25.70;99.90
23471;DHT22;11908;50.806;4.424;2022-07-29T05:27:52;26.30;99.90
23471;DHT22;11908;50.806;4.424;2022-07-29T05:30:18;26.90;99.90
23471;DHT22;11908;50.806;4.424;2022-07-29T05:32:43;27.30;99.90
23471;DHT22;11908;50.806;4.424;2022-07-29T05:35:10;27.80;99.90
23471;DHT22;11908;50.806;4.424;2022-07-29T05:37:37;28.40;99.90
23471;DHT22;11908;50.806;4.424;2022-07-29T05:40:03;28.70;99.90
23471;DHT22;11908;50.806;4.424;2022-07-29T05:42:28;29.10;99.90
23471;DHT22;11908;50.806;4.424;2022-07-29T05:44:55;28.60;99.90
23471;DHT22;11908;50.806;4.424;2022-07-29T05:47:21;27.30;99.90
23471;DHT22;11908;50.806;4.424;2022-07-29T05:49:46;25.40;99.90
23471;DHT22;11908;50.806;4.424;2022-07-29T05:52:12;24.40;99.90
23471;DHT22;11908;50.806;4.424;2022-07-29T05:54:41;23.70;99.90
23471;DHT22;11908;50.806;4.424;2022-07-29T05:57:07;24.30;99.90
23471;DHT22;11908;50.806;4.424;2022-07-29T05:59:37;25.40;99.90
23471;DHT22;11908;50.806;4.424;2022-07-29T06:02:04;26.30;99.90
23471;DHT22;11908;50.806;4.424;2022-07-29T06:04:31;27.00;99.90
23471;DHT22;11908;50.806;4.424;2022-07-29T06:06:56;27.20;99.90
23471;DHT22;11908;50.806;4.424;2022-07-29T06:09:22;27.40;99.90
23471;DHT22;11908;50.806;4.424;2022-07-29T06:11:48;28.10;99.90
23471;DHT22;11908;50.806;4.424;2022-07-29T06:14:14;28.30;99.90
23471;DHT22;11908;50.806;4.424;2022-07-29T06:16:40;27.50;99.90
23471;DHT22;11908;50.806;4.424;2022-07-29T06:19:05;27.60;99.90
23471;DHT22;11908;50.806;4.424;2022-07-29T06:21:31;27.50;99.90
23471;DHT22;11908;50.806;4.424;2022-07-29T06:23:57;26.80;99.90
23471;DHT22;11908;50.806;4.424;2022-07-29T06:26:23;27.00;99.90
23471;DHT22;11908;50.806;4.424;2022-07-29T06:28:48;27.40;99.90
23471;DHT22;11908;50.806;4.424;2022-07-29T06:31:14;28.20;99.90
23471;DHT22;11908;50.806;4.424;2022-07-29T06:33:40;28.20;99.90
23471;DHT22;11908;50.806;4.424;2022-07-29T06:36:06;28.70;99.40
23471;DHT22;11908;50.806;4.424;2022-07-29T06:38:32;28.60;98.60
23471;DHT22;11908;50.806;4.424;2022-07-29T06:40:58;28.10;99.60
23471;DHT22;11908;50.806;4.424;2022-07-29T06:43:37;27.60;99.90
23471;DHT22;11908;50.806;4.424;2022-07-29T06:46:06;27.30;99.90
23471;DHT22;11908;50.806;4.424;2022-07-29T06:48:32;26.80;99.90
23471;DHT22;11908;50.806;4.424;2022-07-29T06:50:59;26.70;99.90
23471;DHT22;11908;50.806;4.424;2022-07-29T06:53:24;26.60;99.90
23471;DHT22;11908;50.806;4.424;2022-07-29T06:55:50;26.70;99.90
23471;DHT22;11908;50.806;4.424;2022-07-29T06:58:16;26.30;99.90
23471;DHT22;11908;50.806;4.424;2022-07-29T07:00:44;26.00;99.90
23471;DHT22;11908;50.806;4.424;2022-07-29T07:03:10;26.00;99.90
23471;DHT22;11908;50.806;4.424;2022-07-29T07:05:36;26.60;99.90
23471;DHT22;11908;50.806;4.424;2022-07-29T07:08:02;27.50;99.90
23471;DHT22;11908;50.806;4.424;2022-07-29T07:10:28;28.40;99.90
23471;DHT22;11908;50.806;4.424;2022-07-29T07:12:53;29.40;98.70
23471;DHT22;11908;50.806;4.424;2022-07-29T07:15:19;29.80;98.30
23471;DHT22;11908;50.806;4.424;2022-07-29T07:17:48;29.20;98.80
23471;DHT22;11908;50.806;4.424;2022-07-29T07:20:15;29.00;98.30
23471;DHT22;11908;50.806;4.424;2022-07-29T07:22:41;28.70;98.50
23471;DHT22;11908;50.806;4.424;2022-07-29T07:25:07;28.50;99.40
23471;DHT22;11908;50.806;4.424;2022-07-29T07:27:32;29.10;98.50
23471;DHT22;11908;50.806;4.424;2022-07-29T07:29:58;30.10;97.60
23471;DHT22;11908;50.806;4.424;2022-07-29T07:32:24;30.50;96.90
23471;DHT22;11908;50.806;4.424;2022-07-29T07:34:49;30.80;96.10
23471;DHT22;11908;50.806;4.424;2022-07-29T07:37:15;31.00;95.20
23471;DHT22;11908;50.806;4.424;2022-07-29T07:39:41;31.10;94.50
23471;DHT22;11908;50.806;4.424;2022-07-29T07:42:07;31.10;94.40
23471;DHT22;11908;50.806;4.424;2022-07-29T07:44:33;30.80;94.10
23471;DHT22;11908;50.806;4.424;2022-07-29T07:46:58;30.40;94.20
23471;DHT22;11908;50.806;4.424;2022-07-29T07:49:24;30.00;94.80
23471;DHT22;11908;50.806;4.424;2022-07-29T07:51:50;29.40;95.20
23471;DHT22;11908;50.806;4.424;2022-07-29T07:54:15;29.20;95.80
23471;DHT22;11908;50.806;4.424;2022-07-29T07:56:41;28.90;96.80
23471;DHT22;11908;50.806;4.424;2022-07-29T07:59:07;29.30;95.90
23471;DHT22;11908;50.806;4.424;2022-07-29T08:01:32;29.80;95.70
23471;DHT22;11908;50.806;4.424;2022-07-29T08:03:58;30.40;94.50
23471;DHT22;11908;50.806;4.424;2022-07-29T08:06:23;31.40;93.60
23471;DHT22;11908;50.806;4.424;2022-07-29T08:08:50;32.10;92.60
23471;DHT22;11908;50.806;4.424;2022-07-29T08:11:16;32.60;91.50
23471;DHT22;11908;50.806;4.424;2022-07-29T08:13:42;32.80;90.70
23471;DHT22;11908;50.806;4.424;2022-07-29T08:16:08;32.80;90.50
23471;DHT22;11908;50.806;4.424;2022-07-29T08:18:39;33.40;90.20
23471;DHT22;11908;50.806;4.424;2022-07-29T08:21:05;34.40;86.90
23471;DHT22;11908;50.806;4.424;2022-07-29T08:23:31;33.90;86.20
23471;DHT22;11908;50.806;4.424;2022-07-29T08:26:07;33.50;86.30
23471;DHT22;11908;50.806;4.424;2022-07-29T08:28:37;34.10;85.70
23471;DHT22;11908;50.806;4.424;2022-07-29T08:31:03;34.70;84.70
23471;DHT22;11908;50.806;4.424;2022-07-29T08:33:28;35.20;82.00
23471;DHT22;11908;50.806;4.424;2022-07-29T08:35:54;35.60;80.80
23471;DHT22;11908;50.806;4.424;2022-07-29T08:38:19;35.90;78.70
23471;DHT22;11908;50.806;4.424;2022-07-29T08:40:46;36.50;77.00
23471;DHT22;11908;50.806;4.424;2022-07-29T08:43:12;36.40;74.70
23471;DHT22;11908;50.806;4.424;2022-07-29T08:45:44;36.00;75.30
23471;DHT22;11908;50.806;4.424;2022-07-29T08:48:12;36.20;75.60
23471;DHT22;11908;50.806;4.424;2022-07-29T08:50:38;36.20;74.70
23471;DHT22;11908;50.806;4.424;2022-07-29T08:53:06;36.20;74.20
23471;DHT22;11908;50.806;4.424;2022-07-29T08:55:33;35.80;74.70
23471;DHT22;11908;50.806;4.424;2022-07-29T08:57:59;36.20;73.20
23471;DHT22;11908;50.806;4.424;2022-07-29T09:00:25;36.50;72.40
23471;DHT22;11908;50.806;4.424;2022-07-29T09:02:56;36.70;72.50
23471;DHT22;11908;50.806;4.424;2022-07-29T09:05:23;36.20;71.40
23471;DHT22;11908;50.806;4.424;2022-07-29T09:07:50;35.20;73.10
23471;DHT22;11908;50.806;4.424;2022-07-29T09:10:16;35.40;73.40
23471;DHT22;11908;50.806;4.424;2022-07-29T09:12:42;35.20;74.10
23471;DHT22;11908;50.806;4.424;2022-07-29T09:15:08;35.20;73.50
23471;DHT22;11908;50.806;4.424;2022-07-29T09:17:48;35.60;72.20
23471;DHT22;11908;50.806;4.424;2022-07-29T09:20:17;35.00;72.60
23471;DHT22;11908;50.806;4.424;2022-07-29T09:22:44;34.40;74.10
23471;DHT22;11908;50.806;4.424;2022-07-29T09:25:12;34.70;73.00
23471;DHT22;11908;50.806;4.424;2022-07-29T09:27:38;34.80;72.30
23471;DHT22;11908;50.806;4.424;2022-07-29T09:30:09;35.10;71.90
23471;DHT22;11908;50.806;4.424;2022-07-29T09:32:57;35.40;72.10
23471;DHT22;11908;50.806;4.424;2022-07-29T09:35:25;34.20;71.70
23471;DHT22;11908;50.806;4.424;2022-07-29T09:37:52;34.50;71.20
23471;DHT22;11908;50.806;4.424;2022-07-29T09:40:22;33.90;71.20
23471;DHT22;11908;50.806;4.424;2022-07-29T09:42:48;33.70;73.10
23471;DHT22;11908;50.806;4.424;2022-07-29T09:45:32;33.40;72.70
23471;DHT22;11908;50.806;4.424;2022-07-29T09:47:58;33.40;73.20
23471;DHT22;11908;50.806;4.424;2022-07-29T09:50:36;34.00;73.00
23471;DHT22;11908;50.806;4.424;2022-07-29T09:53:02;34.40;71.70
23471;DHT22;11908;50.806;4.424;2022-07-29T09:55:28;34.10;71.00
23471;DHT22;11908;50.806;4.424;2022-07-29T09:57:53;33.80;72.10
23471;DHT22;11908;50.806;4.424;2022-07-29T10:00:42;34.00;71.80
23471;DHT22;11908;50.806;4.424;2022-07-29T10:03:08;33.90;71.60
23471;DHT22;11908;50.806;4.424;2022-07-29T10:05:33;34.00;72.40
23471;DHT22;11908;50.806;4.424;2022-07-29T10:07:59;33.80;71.70
23471;DHT22;11908;50.806;4.424;2022-07-29T10:10:27;33.80;71.00
23471;DHT22;11908;50.806;4.424;2022-07-29T10:12:58;33.80;69.90
23471;DHT22;11908;50.806;4.424;2022-07-29T10:15:27;33.70;71.60
23471;DHT22;11908;50.806;4.424;2022-07-29T10:17:54;34.00;70.70
23471;DHT22;11908;50.806;4.424;2022-07-29T10:20:21;33.50;71.30
23471;DHT22;11908;50.806;4.424;2022-07-29T10:22:48;33.20;71.80
23471;DHT22;11908;50.806;4.424;2022-07-29T10:25:15;33.80;72.10
23471;DHT22;11908;50.806;4.424;2022-07-29T10:27:42;33.20;71.20
23471;DHT22;11908;50.806;4.424;2022-07-29T10:30:08;33.50;71.50
23471;DHT22;11908;50.806;4.424;2022-07-29T10:32:48;33.50;71.70
23471;DHT22;11908;50.806;4.424;2022-07-29T10:43:44;31.10;76.40
23471;DHT22;11908;50.806;4.424;2022-07-29T10:46:11;31.20;76.40
23471;DHT22;11908;50.806;4.424;2022-07-29T10:49:06;31.50;76.30
23471;DHT22;11908;50.806;4.424;2022-07-29T10:54:41;32.20;76.20
23471;DHT22;11908;50.806;4.424;2022-07-29T11:02:45;32.80;72.70
23471;DHT22;11908;50.806;4.424;2022-07-29T11:05:14;32.90;73.10
23471;DHT22;11908;50.806;4.424;2022-07-29T11:10:37;33.20;72.20
23471;DHT22;11908;50.806;4.424;2022-07-29T11:13:02;33.40;71.20
23471;DHT22;11908;50.806;4.424;2022-07-29T11:15:28;34.20;70.90
23471;DHT22;11908;50.806;4.424;2022-07-29T11:20:44;33.70;68.90
23471;DHT22;11908;50.806;4.424;2022-07-29T11:23:30;33.10;68.60
23471;DHT22;11908;50.806;4.424;2022-07-29T11:26:18;32.60;71.20
23471;DHT22;11908;50.806;4.424;2022-07-29T11:31:16;32.30;72.80
23471;DHT22;11908;50.806;4.424;2022-07-29T11:33:42;32.50;70.60
23471;DHT22;11908;50.806;4.424;2022-07-29T11:36:13;32.30;68.90
23471;DHT22;11908;50.806;4.424;2022-07-29T11:38:39;32.10;70.00
23471;DHT22;11908;50.806;4.424;2022-07-29T11:41:21;31.40;72.50
23471;DHT22;11908;50.806;4.424;2022-07-29T11:43:58;30.90;72.20
23471;DHT22;11908;50.806;4.424;2022-07-29T11:46:44;31.10;72.30
23471;DHT22;11908;50.806;4.424;2022-07-29T11:49:12;31.30;71.30
23471;DHT22;11908;50.806;4.424;2022-07-29T11:51:38;31.40;71.60
23471;DHT22;11908;50.806;4.424;2022-07-29T11:54:04;31.70;70.70
23471;DHT22;11908;50.806;4.424;2022-07-29T11:56:34;32.00;70.20
23471;DHT22;11908;50.806;4.424;2022-07-29T11:59:05;32.30;69.90
23471;DHT22;11908;50.806;4.424;2022-07-29T12:01:32;32.40;69.70
23471;DHT22;11908;50.806;4.424;2022-07-29T12:04:04;32.10;69.90
23471;DHT22;11908;50.806;4.424;2022-07-29T12:06:30;32.00;70.70
23471;DHT22;11908;50.806;4.424;2022-07-29T12:08:56;31.80;70.70
23471;DHT22;11908;50.806;4.424;2022-07-29T12:11:22;31.50;72.70
23471;DHT22;11908;50.806;4.424;2022-07-29T12:13:49;30.90;71.90
23471;DHT22;11908;50.806;4.424;2022-07-29T12:16:15;31.10;72.30
23471;DHT22;11908;50.806;4.424;2022-07-29T12:18:41;31.10;71.60
23471;DHT22;11908;50.806;4.424;2022-07-29T12:21:07;31.60;71.10
23471;DHT22;11908;50.806;4.424;2022-07-29T12:23:34;31.80;69.40
23471;DHT22;11908;50.806;4.424;2022-07-29T12:26:03;32.00;69.60
23471;DHT22;11908;50.806;4.424;2022-07-29T12:28:29;32.30;70.20
23471;DHT22;11908;50.806;4.424;2022-07-29T12:30:54;32.10;69.70
23471;DHT22;11908;50.806;4.424;2022-07-29T12:33:27;32.20;70.90
23471;DHT22;11908;50.806;4.424;2022-07-29T12:35:59;32.60;70.10
23471;DHT22;11908;50.806;4.424;2022-07-29T12:38:25;32.70;70.00
23471;DHT22;11908;50.806;4.424;2022-07-29T12:40:52;32.00;71.30
23471;DHT22;11908;50.806;4.424;2022-07-29T12:43:20;31.50;71.00
23471;DHT22;11908;50.806;4.424;2022-07-29T12:45:54;31.10;71.70
23471;DHT22;11908;50.806;4.424;2022-07-29T12:48:53;30.70;72.40
23471;DHT22;11908;50.806;4.424;2022-07-29T12:51:36;30.70;73.80
23471;DHT22;11908;50.806;4.424;2022-07-29T12:56:28;31.20;72.60
23471;DHT22;11908;50.806;4.424;2022-07-29T12:58:54;31.60;70.80
23471;DHT22;11908;50.806;4.424;2022-07-29T13:01:20;31.80;71.10
23471;DHT22;11908;50.806;4.424;2022-07-29T13:03:58;31.90;70.90
23471;DHT22;11908;50.806;4.424;2022-07-29T13:06:44;31.70;70.10
23471;DHT22;11908;50.806;4.424;2022-07-29T13:09:16;31.40;72.10
23471;DHT22;11908;50.806;4.424;2022-07-29T13:11:48;31.10;71.60
23471;DHT22;11908;50.806;4.424;2022-07-29T13:14:38;31.30;71.80
23471;DHT22;11908;50.806;4.424;2022-07-29T13:17:18;31.60;70.90
23471;DHT22;11908;50.806;4.424;2022-07-29T13:22:20;32.10;70.50
23471;DHT22;11908;50.806;4.424;2022-07-29T13:24:53;31.80;70.60
23471;DHT22;11908;50.806;4.424;2022-07-29T13:27:20;31.80;70.40
23471;DHT22;11908;50.806;4.424;2022-07-29T13:29:47;31.70;70.60
23471;DHT22;11908;50.806;4.424;2022-07-29T13:32:13;31.20;71.70
23471;DHT22;11908;50.806;4.424;2022-07-29T13:34:39;31.00;72.50
23471;DHT22;11908;50.806;4.424;2022-07-29T13:37:05;30.80;72.30
23471;DHT22;11908;50.806;4.424;2022-07-29T13:39:31;30.70;73.10
23471;DHT22;11908;50.806;4.424;2022-07-29T13:41:56;30.70;72.90
23471;DHT22;11908;50.806;4.424;2022-07-29T13:44:22;30.50;73.30
23471;DHT22;11908;50.806;4.424;2022-07-29T13:46:47;30.90;72.60
23471;DHT22;11908;50.806;4.424;2022-07-29T13:49:13;30.70;73.10
23471;DHT22;11908;50.806;4.424;2022-07-29T13:51:39;30.60;71.70
23471;DHT22;11908;50.806;4.424;2022-07-29T13:54:05;30.30;73.10
23471;DHT22;11908;50.806;4.424;2022-07-29T13:56:30;30.20;74.30
23471;DHT22;11908;50.806;4.424;2022-07-29T13:58:56;30.00;74.80
23471;DHT22;11908;50.806;4.424;2022-07-29T14:01:22;29.90;75.50
23471;DHT22;11908;50.806;4.424;2022-07-29T14:03:48;29.90;75.00
23471;DHT22;11908;50.806;4.424;2022-07-29T14:06:14;30.00;74.60
23471;DHT22;11908;50.806;4.424;2022-07-29T14:08:39;30.40;74.80
23471;DHT22;11908;50.806;4.424;2022-07-29T14:11:05;30.50;72.60
23471;DHT22;11908;50.806;4.424;2022-07-29T14:13:31;30.70;72.60
23471;DHT22;11908;50.806;4.424;2022-07-29T14:15:57;30.70;72.90
23471;DHT22;11908;50.806;4.424;2022-07-29T14:18:22;30.80;74.50
23471;DHT22;11908;50.806;4.424;2022-07-29T14:20:48;30.70;72.60
23471;DHT22;11908;50.806;4.424;2022-07-29T14:23:14;30.80;73.10
23471;DHT22;11908;50.806;4.424;2022-07-29T14:25:40;30.50;73.30
23471;DHT22;11908;50.806;4.424;2022-07-29T14:28:06;30.60;71.70
23471;DHT22;11908;50.806;4.424;2022-07-29T14:30:32;30.20;71.70
23471;DHT22;11908;50.806;4.424;2022-07-29T14:32:58;30.00;72.00
23471;DHT22;11908;50.806;4.424;2022-07-29T14:35:24;30.00;73.20
23471;DHT22;11908;50.806;4.424;2022-07-29T14:37:49;30.00;72.00
23471;DHT22;11908;50.806;4.424;2022-07-29T14:40:15;30.00;72.00
23471;DHT22;11908;50.806;4.424;2022-07-29T14:42:41;29.90;72.60
23471;DHT22;11908;50.806;4.424;2022-07-29T14:45:08;29.70;72.90
23471;DHT22;11908;50.806;4.424;2022-07-29T14:47:34;29.50;72.90
23471;DHT22;11908;50.806;4.424;2022-07-29T14:49:59;29.40;73.10
23471;DHT22;11908;50.806;4.424;2022-07-29T14:52:25;29.30;72.40
23471;DHT22;11908;50.806;4.424;2022-07-29T14:54:51;29.30;72.80
23471;DHT22;11908;50.806;4.424;2022-07-29T14:57:16;29.00;74.30
23471;DHT22;11908;50.806;4.424;2022-07-29T14:59:42;29.20;75.20
23471;DHT22;11908;50.806;4.424;2022-07-29T15:02:08;29.20;74.20
23471;DHT22;11908;50.806;4.424;2022-07-29T15:04:34;29.00;74.90
23471;DHT22;11908;50.806;4.424;2022-07-29T15:07:00;29.00;74.20
23471;DHT22;11908;50.806;4.424;2022-07-29T15:09:25;28.80;74.40
23471;DHT22;11908;50.806;4.424;2022-07-29T15:11:51;29.00;74.60
23471;DHT22;11908;50.806;4.424;2022-07-29T15:14:17;28.90;74.10
23471;DHT22;11908;50.806;4.424;2022-07-29T15:16:43;29.20;73.00
23471;DHT22;11908;50.806;4.424;2022-07-29T15:19:09;29.00;74.10
23471;DHT22;11908;50.806;4.424;2022-07-29T15:21:34;28.80;75.00
23471;DHT22;11908;50.806;4.424;2022-07-29T15:24:00;28.60;75.50
23471;DHT22;11908;50.806;4.424;2022-07-29T15:26:26;28.50;76.50
23471;DHT22;11908;50.806;4.424;2022-07-29T15:28:51;28.40;76.20
23471;DHT22;11908;50.806;4.424;2022-07-29T15:31:17;28.20;77.00
23471;DHT22;11908;50.806;4.424;2022-07-29T15:33:44;27.90;77.40
23471;DHT22;11908;50.806;4.424;2022-07-29T15:36:10;27.70;78.50
23471;DHT22;11908;50.806;4.424;2022-07-29T15:38:38;27.60;79.30
23471;DHT22;11908;50.806;4.424;2022-07-29T15:41:06;27.50;80.30
23471;DHT22;11908;50.806;4.424;2022-07-29T15:43:32;27.40;80.10
23471;DHT22;11908;50.806;4.424;2022-07-29T15:45:57;27.40;80.60
23471;DHT22;11908;50.806;4.424;2022-07-29T15:48:42;27.40;81.00
23471;DHT22;11908;50.806;4.424;2022-07-29T15:51:07;27.40;81.20
23471;DHT22;11908;50.806;4.424;2022-07-29T15:53:33;27.50;79.70
23471;DHT22;11908;50.806;4.424;2022-07-29T15:55:59;27.70;78.80
23471;DHT22;11908;50.806;4.424;2022-07-29T15:58:24;27.80;78.80
23471;DHT22;11908;50.806;4.424;2022-07-29T16:00:50;28.00;79.30
23471;DHT22;11908;50.806;4.424;2022-07-29T16:03:16;27.90;78.50
23471;DHT22;11908;50.806;4.424;2022-07-29T16:05:42;27.90;78.90
23471;DHT22;11908;50.806;4.424;2022-07-29T16:08:07;27.80;78.30
23471;DHT22;11908;50.806;4.424;2022-07-29T16:10:33;27.70;77.90
23471;DHT22;11908;50.806;4.424;2022-07-29T16:12:59;27.60;77.80
23471;DHT22;11908;50.806;4.424;2022-07-29T16:15:24;27.40;79.40
23471;DHT22;11908;50.806;4.424;2022-07-29T16:17:50;27.30;80.00
23471;DHT22;11908;50.806;4.424;2022-07-29T16:20:16;27.40;79.70
23471;DHT22;11908;50.806;4.424;2022-07-29T16:22:42;27.30;79.60
23471;DHT22;11908;50.806;4.424;2022-07-29T16:25:08;27.30;80.60